Airport View

Enter AWOS ICAO identifier for current METAR.

ex. KFNL

KACT 201051Z AUTO 15008KT 8SM OVC007 17/14 A2995 RMK AO2 SLP137 T01670144 $

20 Nov 2019 11:16

Phone: 254-759-3065

Other Area AWOS: KCNW - KPWG - KTPL - KINJ

TAF AMD KACT 200858Z 2009/2106 17013KT P6SM BKN012 FM201800 17017G27KT P6SM SCT025 BKN050 FM210000 17015KT P6SM VCSH BKN050